createdAt,value
2019-05-02T00:01:42.238Z,70.12
2019-05-02T00:04:12.424Z,70.52
2019-05-02T00:06:38.197Z,70.46
2019-05-02T00:09:09.074Z,70.85
2019-05-02T00:11:35.248Z,70.60
2019-05-02T00:14:01.923Z,71.00
2019-05-02T00:16:28.122Z,70.56
2019-05-02T00:18:54.480Z,70.62
2019-05-02T00:21:20.584Z,70.75
2019-05-02T00:23:46.606Z,70.99
2019-05-02T00:26:12.833Z,70.45
2019-05-02T00:28:43.018Z,70.33
2019-05-02T00:31:11.507Z,70.49
2019-05-02T00:33:35.956Z,70.38
2019-05-02T00:36:02.236Z,70.57
2019-05-02T00:38:33.318Z,70.91
2019-05-02T00:40:57.447Z,70.73
2019-05-02T00:43:29.075Z,70.94
2019-05-02T00:45:55.031Z,71.07
2019-05-02T00:48:23.257Z,70.58
2019-05-02T00:50:50.650Z,71.29
2019-05-02T00:53:17.218Z,71.09
2019-05-02T00:55:43.231Z,71.76
2019-05-02T00:58:09.257Z,71.21
2019-05-02T01:00:35.789Z,70.89
2019-05-02T01:03:01.770Z,70.76
2019-05-02T01:05:27.936Z,71.30
2019-05-02T01:07:56.056Z,71.65
2019-05-02T01:10:22.505Z,71.64
2019-05-02T01:12:48.669Z,72.03
2019-05-02T01:15:14.705Z,71.82
2019-05-02T01:17:40.812Z,71.75
2019-05-02T01:20:07.453Z,72.13
2019-05-02T01:22:33.518Z,72.06
2019-05-02T01:25:00.726Z,72.28
2019-05-02T01:27:26.683Z,71.76
2019-05-02T01:29:52.975Z,72.82
2019-05-02T01:32:19.115Z,72.66
2019-05-02T01:34:49.109Z,72.63
2019-05-02T01:37:20.979Z,72.50
2019-05-02T01:40:01.335Z,72.44
2019-05-02T01:42:39.300Z,72.96
2019-05-02T01:44:55.326Z,72.85
2019-05-02T01:47:21.350Z,73.07
2019-05-02T01:49:47.371Z,72.95
2019-05-02T01:52:13.500Z,73.10
2019-05-02T01:54:40.653Z,72.34
2019-05-02T01:57:08.762Z,71.90
2019-05-02T01:59:35.764Z,71.72
2019-05-02T02:02:01.992Z,71.44
2019-05-02T02:04:28.116Z,71.56
2019-05-02T02:06:54.448Z,71.80
2019-05-02T02:09:20.471Z,72.32
2019-05-02T02:11:46.562Z,73.03
2019-05-02T02:14:16.136Z,72.52
2019-05-02T02:16:40.689Z,71.84
2019-05-02T02:19:07.016Z,71.44
2019-05-02T02:21:33.513Z,71.55
2019-05-02T02:23:59.578Z,72.09
2019-05-02T02:26:25.595Z,72.48
2019-05-02T02:28:51.926Z,73.15
2019-05-02T02:31:18.541Z,73.24
2019-05-02T02:33:48.033Z,72.41
2019-05-02T02:36:12.562Z,72.30
2019-05-02T02:38:38.789Z,72.83
2019-05-02T02:41:06.518Z,72.60
2019-05-02T02:43:34.884Z,72.25
2019-05-02T02:46:01.479Z,71.97
2019-05-02T02:48:27.502Z,71.79
2019-05-02T02:50:53.538Z,71.84
2019-05-02T02:53:24.219Z,72.27
2019-05-02T02:55:47.569Z,71.64
2019-05-02T02:58:13.617Z,71.82
2019-05-02T03:00:41.440Z,72.44
2019-05-02T03:03:07.614Z,72.71
2019-05-02T03:05:33.647Z,73.12
2019-05-02T03:08:05.466Z,73.15
2019-05-02T03:10:27.828Z,73.47
2019-05-02T03:12:54.268Z,73.46
2019-05-02T03:15:21.126Z,72.90
2019-05-02T03:17:48.475Z,72.98
2019-05-02T03:20:14.460Z,72.75
2019-05-02T03:22:41.929Z,72.74
2019-05-02T03:25:08.893Z,72.59
2019-05-02T03:27:37.367Z,72.42
2019-05-02T03:30:04.223Z,72.07
2019-05-02T03:32:35.027Z,71.68
2019-05-02T03:34:58.401Z,71.72
2019-05-02T03:37:24.524Z,72.23
2019-05-02T03:39:57.219Z,72.44
2019-05-02T03:42:19.218Z,73.17
2019-05-02T03:44:55.015Z,73.22
2019-05-02T03:47:13.975Z,72.57
2019-05-02T03:49:47.825Z,72.09
2019-05-02T03:52:08.338Z,71.82
2019-05-02T03:54:34.670Z,71.73
2019-05-02T03:57:00.936Z,71.65
2019-05-02T03:59:37.544Z,71.07
2019-05-02T04:01:57.143Z,70.91
2019-05-02T04:04:23.286Z,71.03
2019-05-02T04:06:55.081Z,71.13
2019-05-02T04:09:39.057Z,70.83
2019-05-02T04:12:03.347Z,71.11
2019-05-02T04:14:38.075Z,71.38
2019-05-02T04:16:57.797Z,72.28
2019-05-02T04:19:28.737Z,74.06
2019-05-02T04:21:55.226Z,74.14
2019-05-02T04:24:24.115Z,73.86
2019-05-02T04:26:53.921Z,73.68
2019-05-02T04:29:24.393Z,72.93
2019-05-02T04:31:47.508Z,72.73
2019-05-02T04:34:15.294Z,74.16
2019-05-02T04:36:45.997Z,73.68
2019-05-02T04:39:15.095Z,73.37
2019-05-02T04:41:39.176Z,73.85
2019-05-02T04:44:09.124Z,74.18
2019-05-02T04:46:34.319Z,73.56
2019-05-02T04:49:00.311Z,73.82
2019-05-02T04:51:30.839Z,74.93
2019-05-02T04:53:54.157Z,74.77
2019-05-02T04:56:20.144Z,74.82
2019-05-02T04:58:48.998Z,74.57
2019-05-02T05:01:15.207Z,74.84
2019-05-02T05:03:41.249Z,74.03
2019-05-02T05:06:12.165Z,74.39
2019-05-02T05:08:35.228Z,74.17
2019-05-02T05:11:01.422Z,73.49
2019-05-02T05:13:29.075Z,73.17
2019-05-02T05:15:57.361Z,73.54
2019-05-02T05:18:23.541Z,73.12
2019-05-02T05:20:53.242Z,72.97
2019-05-02T05:23:21.373Z,73.35
2019-05-02T05:25:47.903Z,73.38
2019-05-02T05:28:14.389Z,72.76
2019-05-02T05:30:45.062Z,73.23
2019-05-02T05:33:10.247Z,73.27
2019-05-02T05:35:38.419Z,72.75
2019-05-02T05:38:04.418Z,72.70
2019-05-02T05:40:32.059Z,71.95
2019-05-02T05:43:02.738Z,72.21
2019-05-02T05:45:27.970Z,71.82
2019-05-02T05:47:57.567Z,71.91
2019-05-02T05:50:22.116Z,71.06
2019-05-02T05:52:48.132Z,70.82
2019-05-02T05:55:20.437Z,70.59
2019-05-02T05:57:42.331Z,70.31
2019-05-02T06:00:15.973Z,70.41
2019-05-02T06:02:52.347Z,69.83
2019-05-02T06:05:05.365Z,70.08
2019-05-02T06:07:33.662Z,69.79
2019-05-02T06:10:02.170Z,69.82
2019-05-02T06:12:30.070Z,69.23
2019-05-02T06:15:01.082Z,69.11
2019-05-02T06:17:28.315Z,68.63
2019-05-02T06:19:53.539Z,68.31
2019-05-02T06:22:24.302Z,68.50
2019-05-02T06:24:50.841Z,66.96
2019-05-02T06:27:16.305Z,66.74
2019-05-02T06:29:43.525Z,67.59
2019-05-02T06:32:13.998Z,65.59
2019-05-02T06:34:39.697Z,65.88
2019-05-02T06:37:08.231Z,67.53
2019-05-02T06:39:34.099Z,67.12
2019-05-02T06:42:00.071Z,65.75
2019-05-02T06:44:26.065Z,65.68
2019-05-02T06:46:52.025Z,64.75
2019-05-02T06:49:18.097Z,62.93
2019-05-02T06:51:44.215Z,62.74
2019-05-02T06:54:10.445Z,59.93
2019-05-02T06:56:36.491Z,60.76
2019-05-02T06:59:02.690Z,59.81
2019-05-02T07:01:28.817Z,60.56
2019-05-02T07:03:54.842Z,60.47
2019-05-02T07:06:21.141Z,58.70
2019-05-02T07:08:47.443Z,56.64
2019-05-02T07:11:13.725Z,56.64
2019-05-02T07:13:42.165Z,54.58
2019-05-02T07:16:10.338Z,53.63
2019-05-02T07:18:35.685Z,54.04
2019-05-02T07:21:02.036Z,51.48
2019-05-02T07:23:28.039Z,52.43
2019-05-02T07:25:54.060Z,53.12
2019-05-02T07:28:20.081Z,52.98
2019-05-02T07:30:46.206Z,52.29
2019-05-02T07:33:12.169Z,51.71
2019-05-02T07:35:38.258Z,50.05
2019-05-02T07:38:06.571Z,50.48
2019-05-02T07:40:32.864Z,51.60
2019-05-02T07:42:58.879Z,51.44
2019-05-02T07:45:24.903Z,50.78
2019-05-02T07:47:50.868Z,49.38
2019-05-02T07:50:17.186Z,48.97
2019-05-02T07:52:43.179Z,51.31
2019-05-02T07:55:10.272Z,52.24
2019-05-02T07:57:36.567Z,49.86
2019-05-02T08:00:10.769Z,49.02
2019-05-02T08:02:37.151Z,48.48
2019-05-02T08:05:04.246Z,48.92
2019-05-02T08:07:34.152Z,47.54
2019-05-02T08:09:58.343Z,48.33
2019-05-02T08:12:24.360Z,48.16
2019-05-02T08:14:50.387Z,47.70
2019-05-02T08:17:19.116Z,47.96
2019-05-02T08:19:44.681Z,47.21
2019-05-02T08:22:13.494Z,47.76
2019-05-02T08:24:39.330Z,47.10
2019-05-02T08:27:06.027Z,48.20
2019-05-02T08:29:32.050Z,47.42
2019-05-02T08:31:58.175Z,46.91
2019-05-02T08:34:24.319Z,46.53
2019-05-02T08:36:50.323Z,46.19
2019-05-02T08:39:16.551Z,46.05
2019-05-02T08:41:42.574Z,46.16
2019-05-02T08:44:08.802Z,46.55
2019-05-02T08:46:34.823Z,46.08
2019-05-02T08:49:00.947Z,45.39
2019-05-02T08:51:27.183Z,45.46
2019-05-02T08:53:56.751Z,45.34
2019-05-02T08:56:21.698Z,46.70
2019-05-02T08:58:49.965Z,45.35
2019-05-02T09:01:16.180Z,46.34
2019-05-02T09:03:54.808Z,45.51
2019-05-02T09:06:29.989Z,44.90
2019-05-02T09:08:56.366Z,44.97
2019-05-02T09:11:22.490Z,46.00
2019-05-02T09:13:48.911Z,44.29
2019-05-02T09:16:14.954Z,44.28
2019-05-02T09:18:50.585Z,45.06
2019-05-02T09:21:09.039Z,44.66
2019-05-02T09:23:37.016Z,44.12
2019-05-02T09:26:03.645Z,44.63
2019-05-02T09:28:29.776Z,44.51
2019-05-02T09:30:57.430Z,43.67
2019-05-02T09:33:23.779Z,43.63
2019-05-02T09:35:51.580Z,43.00
2019-05-02T09:38:17.762Z,42.81
2019-05-02T09:40:47.177Z,42.74
2019-05-02T09:43:12.284Z,43.67
2019-05-02T09:45:41.277Z,44.35
2019-05-02T09:48:08.210Z,42.92
2019-05-02T09:50:38.195Z,41.66
2019-05-02T09:53:03.833Z,41.86
2019-05-02T09:55:31.796Z,42.75
2019-05-02T09:57:57.915Z,41.81
2019-05-02T10:00:26.787Z,40.41
2019-05-02T10:02:54.365Z,41.31
2019-05-02T10:05:20.594Z,41.77
2019-05-02T10:07:48.583Z,40.70
2019-05-02T10:10:15.199Z,40.62
2019-05-02T10:12:42.732Z,39.95
2019-05-02T10:15:13.179Z,40.39
2019-05-02T10:17:42.892Z,40.36
2019-05-02T10:20:08.168Z,41.99
2019-05-02T10:22:39.349Z,40.70
2019-05-02T10:25:04.543Z,39.41
2019-05-02T10:27:32.251Z,40.24
2019-05-02T10:30:08.088Z,38.38
2019-05-02T10:32:26.501Z,38.38
2019-05-02T10:34:56.704Z,37.51
2019-05-02T10:37:21.728Z,36.57
2019-05-02T10:39:48.054Z,37.78
2019-05-02T10:42:14.073Z,38.06
2019-05-02T10:44:40.096Z,39.20
2019-05-02T10:47:06.529Z,36.79
2019-05-02T10:49:32.654Z,37.29
2019-05-02T10:51:58.675Z,39.24
2019-05-02T10:54:27.944Z,39.15
2019-05-02T10:56:52.872Z,37.61
2019-05-02T10:59:18.999Z,37.71
2019-05-02T11:01:45.021Z,37.91
2019-05-02T11:04:12.903Z,36.63
2019-05-02T11:06:42.562Z,37.25
2019-05-02T11:09:09.025Z,38.95
2019-05-02T11:11:35.357Z,38.46
2019-05-02T11:14:05.613Z,39.36
2019-05-02T11:16:29.351Z,36.23
2019-05-02T11:18:55.473Z,38.80
2019-05-02T11:21:22.902Z,38.89
2019-05-02T11:23:49.261Z,37.95
2019-05-02T11:26:23.245Z,38.58
2019-05-02T11:28:43.457Z,39.01
2019-05-02T11:31:10.215Z,38.35
2019-05-02T11:33:37.775Z,38.70
2019-05-02T11:36:03.980Z,38.37
2019-05-02T11:38:38.803Z,38.19
2019-05-02T11:40:59.446Z,37.89
2019-05-02T11:43:25.529Z,39.14
2019-05-02T11:45:54.159Z,40.36
2019-05-02T11:48:19.917Z,40.76
2019-05-02T11:50:46.059Z,40.24
2019-05-02T11:53:24.869Z,37.91
2019-05-02T11:55:41.981Z,38.10
2019-05-02T11:58:10.127Z,37.27
2019-05-02T12:00:39.666Z,38.21
2019-05-02T12:03:04.056Z,37.40
2019-05-02T12:05:31.837Z,38.61
2019-05-02T12:08:00.800Z,38.28
2019-05-02T12:10:28.037Z,38.88
2019-05-02T12:12:54.481Z,39.75
2019-05-02T12:15:21.696Z,39.17
2019-05-02T12:17:47.870Z,39.43
2019-05-02T12:20:14.464Z,37.30
2019-05-02T12:22:41.958Z,38.86
2019-05-02T12:25:08.394Z,38.91
2019-05-02T12:27:34.623Z,40.20
2019-05-02T12:30:03.119Z,40.00
2019-05-02T12:32:29.229Z,38.74
2019-05-02T12:34:55.258Z,39.62
2019-05-02T12:37:21.944Z,38.68
2019-05-02T12:39:48.073Z,40.73
2019-05-02T12:42:14.517Z,39.72
2019-05-02T12:44:42.591Z,38.00
2019-05-02T12:47:09.051Z,37.82
2019-05-02T12:49:35.292Z,36.92
2019-05-02T12:52:01.825Z,38.44
2019-05-02T12:54:29.065Z,38.76
2019-05-02T12:56:55.088Z,38.45
2019-05-02T12:59:22.544Z,39.53
2019-05-02T13:01:48.678Z,37.23
2019-05-02T13:04:14.697Z,37.20
2019-05-02T13:06:42.190Z,39.22
2019-05-02T13:09:09.743Z,38.14
2019-05-02T13:11:36.732Z,40.01
2019-05-02T13:14:04.423Z,39.00
2019-05-02T13:16:30.744Z,39.43
2019-05-02T13:19:03.027Z,40.38
2019-05-02T13:21:38.728Z,40.11
2019-05-02T13:23:54.445Z,39.96
2019-05-02T13:26:25.001Z,39.65
2019-05-02T13:28:48.641Z,37.74
2019-05-02T13:31:15.176Z,39.97
2019-05-02T13:33:42.794Z,40.73
2019-05-02T13:36:29.646Z,42.28
2019-05-02T13:38:55.771Z,41.84
2019-05-02T13:41:22.690Z,37.57
2019-05-02T13:43:48.751Z,41.68
2019-05-02T13:46:14.867Z,41.02
2019-05-02T13:48:42.899Z,40.57
2019-05-02T13:51:09.267Z,41.12
2019-05-02T13:53:35.394Z,43.34
2019-05-02T13:56:02.106Z,42.61
2019-05-02T13:58:29.149Z,39.65
2019-05-02T14:00:56.632Z,41.43
2019-05-02T14:03:22.747Z,39.64
2019-05-02T14:05:51.767Z,37.75
2019-05-02T14:08:17.059Z,41.37
2019-05-02T14:10:43.255Z,40.30
2019-05-02T14:13:09.411Z,38.04
2019-05-02T14:15:35.535Z,39.42
2019-05-02T14:18:02.508Z,42.28
2019-05-02T14:20:28.692Z,41.44
2019-05-02T14:22:55.026Z,42.00
2019-05-02T14:25:22.402Z,39.74
2019-05-02T14:27:52.404Z,41.37
2019-05-02T14:30:17.129Z,40.46
2019-05-02T14:32:43.533Z,39.49
2019-05-02T14:35:11.813Z,38.66
2019-05-02T14:37:37.856Z,40.48
2019-05-02T14:40:06.266Z,38.96
2019-05-02T14:42:32.337Z,40.09
2019-05-02T14:45:08.878Z,39.48
2019-05-02T14:47:26.940Z,40.58
2019-05-02T14:49:56.736Z,38.14
2019-05-02T14:52:22.132Z,38.48
2019-05-02T14:54:48.352Z,37.13
2019-05-02T14:57:17.036Z,40.97
2019-05-02T14:59:42.906Z,37.17
2019-05-02T15:02:09.423Z,40.74
2019-05-02T15:04:38.089Z,40.07
2019-05-02T15:07:05.068Z,40.91
2019-05-02T15:09:32.749Z,37.45
2019-05-02T15:11:59.258Z,39.63
2019-05-02T15:14:32.946Z,38.80
2019-05-02T15:16:59.822Z,39.30
2019-05-02T15:19:26.148Z,43.34
2019-05-02T15:21:55.861Z,40.20
2019-05-02T15:24:20.523Z,39.38
2019-05-02T15:26:46.954Z,38.87
2019-05-02T15:29:19.650Z,37.08
2019-05-02T15:31:42.071Z,39.34
2019-05-02T15:34:08.508Z,38.78
2019-05-02T15:36:37.128Z,36.46
2019-05-02T15:41:34.451Z,39.62
2019-05-02T15:44:01.987Z,39.11
2019-05-02T15:46:28.416Z,41.26
2019-05-02T15:48:57.090Z,41.55
2019-05-02T15:51:23.093Z,40.26
2019-05-02T15:54:01.917Z,40.17
2019-05-02T15:56:20.419Z,38.72
2019-05-02T15:58:45.628Z,39.50
2019-05-02T16:01:12.027Z,40.17
2019-05-02T16:03:43.018Z,40.63
2019-05-02T16:06:06.568Z,40.98
2019-05-02T16:08:32.793Z,39.76
2019-05-02T16:10:58.814Z,41.39
2019-05-02T16:13:24.838Z,39.44
2019-05-02T16:15:52.579Z,40.60
2019-05-02T16:18:18.726Z,37.44
2019-05-02T16:20:48.716Z,39.76
2019-05-02T16:23:13.144Z,41.67
2019-05-02T16:25:39.153Z,42.48
2019-05-02T16:28:06.174Z,41.89
2019-05-02T16:30:32.494Z,42.06
2019-05-02T16:32:58.989Z,42.16
2019-05-02T16:35:25.289Z,42.25
2019-05-02T16:37:55.860Z,41.63
2019-05-02T16:40:22.240Z,41.36
2019-05-02T16:42:49.412Z,42.21
2019-05-02T16:45:16.558Z,41.91
2019-05-02T16:47:42.854Z,42.02
2019-05-02T16:50:12.041Z,42.96
2019-05-02T16:52:42.517Z,42.19
2019-05-02T16:55:06.888Z,43.13
2019-05-02T16:57:35.169Z,43.52
2019-05-02T17:00:06.145Z,45.24
2019-05-02T17:02:32.571Z,46.37
2019-05-02T17:05:00.132Z,44.53
2019-05-02T17:07:26.627Z,43.89
2019-05-02T17:09:52.837Z,45.90
2019-05-02T17:12:18.981Z,45.80
2019-05-02T17:14:53.439Z,45.45
2019-05-02T17:17:13.160Z,44.77
2019-05-02T17:19:39.400Z,46.28
2019-05-02T17:22:07.050Z,47.00
2019-05-02T17:24:33.188Z,46.63
2019-05-02T17:26:59.209Z,46.34
2019-05-02T17:29:25.335Z,44.36
2019-05-02T17:31:57.355Z,46.84
2019-05-02T17:34:24.417Z,47.18
2019-05-02T17:36:48.627Z,46.18
2019-05-02T17:39:14.856Z,46.44
2019-05-02T17:41:42.267Z,47.35
2019-05-02T17:44:12.819Z,48.48
2019-05-02T17:46:39.156Z,47.10
2019-05-02T17:49:04.887Z,48.70
2019-05-02T17:51:33.988Z,47.93
2019-05-02T17:53:59.182Z,48.55
2019-05-02T17:56:26.436Z,48.54
2019-05-02T17:58:54.141Z,46.76
2019-05-02T18:01:21.833Z,48.73
2019-05-02T18:03:47.984Z,48.48
2019-05-02T18:06:17.234Z,50.00
2019-05-02T18:08:46.361Z,49.30
2019-05-02T18:11:10.228Z,50.07
2019-05-02T18:13:37.808Z,50.44
2019-05-02T18:16:07.771Z,51.14
2019-05-02T18:18:37.431Z,50.77
2019-05-02T18:21:02.089Z,50.13
2019-05-02T18:23:28.204Z,51.44
2019-05-02T18:25:57.387Z,52.82
2019-05-02T18:28:26.379Z,53.80
2019-05-02T18:30:52.342Z,54.41
2019-05-02T18:33:18.587Z,55.19
2019-05-02T18:35:46.906Z,54.38
2019-05-02T18:38:16.010Z,55.75
2019-05-02T18:40:42.800Z,55.77
2019-05-02T18:43:08.823Z,55.83
2019-05-02T18:45:35.097Z,56.70
2019-05-02T18:48:05.196Z,57.09
2019-05-02T18:50:32.086Z,57.41
2019-05-02T18:53:01.073Z,56.61
2019-05-02T18:55:27.742Z,57.49
2019-05-02T18:57:57.057Z,57.29
2019-05-02T19:00:23.025Z,57.50
2019-05-02T19:02:49.396Z,57.70
2019-05-02T19:05:19.205Z,57.01
2019-05-02T19:07:47.410Z,57.75
2019-05-02T19:10:12.985Z,58.16
2019-05-02T19:12:39.196Z,58.21
2019-05-02T19:15:07.158Z,58.21
2019-05-02T19:17:38.518Z,59.04
2019-05-02T19:20:06.084Z,59.04
2019-05-02T19:22:29.661Z,58.66
2019-05-02T19:24:55.887Z,58.76
2019-05-02T19:27:25.507Z,58.92
2019-05-02T19:29:51.705Z,58.92
2019-05-02T19:32:25.522Z,58.88
2019-05-02T19:34:46.530Z,59.21
2019-05-02T19:37:12.760Z,58.25
2019-05-02T19:39:47.212Z,57.77
2019-05-02T19:42:07.879Z,57.77
2019-05-02T19:44:34.321Z,58.49
2019-05-02T19:47:02.547Z,58.71
2019-05-02T19:49:29.739Z,57.80
2019-05-02T19:51:58.333Z,57.25
2019-05-02T19:54:24.443Z,57.98
2019-05-02T19:56:52.374Z,57.45
2019-05-02T19:59:24.558Z,58.11
2019-05-02T20:01:47.256Z,57.82
2019-05-02T20:04:13.343Z,56.92
2019-05-02T20:06:41.713Z,57.12
2019-05-02T20:09:08.499Z,57.49
2019-05-02T20:11:36.331Z,57.49
2019-05-02T20:14:09.075Z,55.92
2019-05-02T20:19:23.183Z,57.28
2019-05-02T20:21:45.729Z,58.77
2019-05-02T20:24:15.236Z,58.77
2019-05-02T20:26:41.658Z,58.96
2019-05-02T20:29:07.779Z,59.13
2019-05-02T20:31:34.005Z,59.41
2019-05-02T20:34:02.394Z,59.41
2019-05-02T20:36:28.419Z,60.24
2019-05-02T20:38:54.634Z,60.59
2019-05-02T20:41:22.438Z,61.03
2019-05-02T20:43:48.622Z,60.80
2019-05-02T20:46:14.749Z,61.10
2019-05-02T20:48:41.828Z,61.44
2019-05-02T20:51:08.140Z,61.63
2019-05-02T20:53:34.428Z,62.00
2019-05-02T20:56:01.785Z,61.50
2019-05-02T20:58:28.239Z,62.07
2019-05-02T21:01:05.532Z,62.02
2019-05-02T21:03:22.641Z,62.39
2019-05-02T21:05:48.765Z,62.39
2019-05-02T21:08:14.992Z,62.74
2019-05-02T21:10:41.722Z,62.96
2019-05-02T21:13:07.858Z,63.26
2019-05-02T21:15:34.073Z,63.38
2019-05-02T21:18:02.166Z,63.81
2019-05-02T21:20:28.485Z,63.64
2019-05-02T21:22:54.577Z,63.72
2019-05-02T21:25:23.007Z,63.73
2019-05-02T21:27:48.807Z,63.82
2019-05-02T21:30:18.617Z,63.35
2019-05-02T21:32:44.948Z,63.72
2019-05-02T21:35:11.913Z,63.71
2019-05-02T21:37:39.245Z,63.67
2019-05-02T21:40:06.694Z,63.71
2019-05-02T21:42:32.826Z,63.85
2019-05-02T21:44:58.852Z,63.73
2019-05-02T21:47:24.975Z,63.80
2019-05-02T21:49:52.485Z,63.82
2019-05-02T21:52:18.613Z,63.96
2019-05-02T21:54:44.808Z,64.02
2019-05-02T21:57:12.123Z,64.04
2019-05-02T21:59:38.468Z,64.12
2019-05-02T22:02:05.063Z,64.29
2019-05-02T22:04:31.778Z,64.54
2019-05-02T22:06:58.075Z,64.11
2019-05-02T22:09:24.098Z,64.44
2019-05-02T22:11:51.999Z,64.44
2019-05-02T22:14:18.802Z,65.14
2019-05-02T22:16:44.826Z,64.85
2019-05-02T22:19:10.850Z,64.86
2019-05-02T22:21:37.075Z,64.83
2019-05-02T22:24:11.195Z,64.64
2019-05-02T22:26:32.761Z,64.60
2019-05-02T22:28:59.027Z,64.30
2019-05-02T22:31:25.238Z,64.18
2019-05-02T22:33:52.818Z,63.84
2019-05-02T22:36:21.814Z,63.79
2019-05-02T22:38:48.355Z,63.45
2019-05-02T22:41:14.372Z,64.02
2019-05-02T22:43:42.170Z,63.47
2019-05-02T22:46:08.364Z,63.97
2019-05-02T22:48:34.490Z,64.14
2019-05-02T22:51:00.514Z,63.99
2019-05-02T22:53:26.546Z,64.15
2019-05-02T22:55:52.769Z,64.39
2019-05-02T22:58:19.091Z,63.96
2019-05-02T23:00:45.213Z,64.25
2019-05-02T23:03:12.523Z,64.46
2019-05-02T23:05:38.691Z,64.20
2019-05-02T23:08:04.721Z,64.25
2019-05-02T23:10:32.576Z,64.25
2019-05-02T23:12:58.971Z,64.50
2019-05-02T23:15:25.137Z,64.42
2019-05-02T23:17:52.268Z,64.34
2019-05-02T23:20:18.415Z,64.65
2019-05-02T23:22:44.436Z,64.46
2019-05-02T23:25:11.651Z,64.66
2019-05-02T23:27:39.145Z,64.73
2019-05-02T23:30:08.033Z,64.84
2019-05-02T23:32:34.162Z,64.97
2019-05-02T23:35:01.945Z,64.97
2019-05-02T23:37:28.175Z,64.99
2019-05-02T23:39:54.275Z,65.17
2019-05-02T23:42:21.827Z,65.26
2019-05-02T23:44:48.066Z,64.99
2019-05-02T23:47:14.089Z,65.04
2019-05-02T23:49:42.577Z,65.56
2019-05-02T23:52:08.754Z,65.52
2019-05-02T23:54:34.828Z,65.74
2019-05-02T23:57:00.843Z,65.72
2019-05-02T23:59:26.846Z,65.98
